Anapolis, Brazil
Current Conditions -  °F | °C
As of 12:00 AM on Tuesday 21 Oct 2014 (Local Time) from SBAN Reporting Station
Few Clouds Few Clouds  
Wind Chill: 70°   Ceiling: Unl
Heat Index: 70°   Visibility: 6mi
Dew Point: 61°   Wind: 13mph
Humidity: 73%   Direction: 190°S
Pressure: 30.06"   Gusts: NA
Location:  16.32°S, 48.96°W
Report Text: SBAN 210300Z 19011KT 9999 FEW030 21/16 Q1018
Loading
Personal Weather Stations






























Interactive Weather Map
Tropical Storm Tracking
New forecast layout! Learn more

10-Day Weather Forecast

Advertisements
Track Severe Weather on mobile